createdAt,value
2023-04-16T00:02:25.097Z,3.85
2023-04-16T00:04:52.080Z,3.77
2023-04-16T00:07:18.906Z,3.70
2023-04-16T00:09:46.668Z,3.59
2023-04-16T00:12:13.755Z,3.60
2023-04-16T00:14:40.606Z,3.57
2023-04-16T00:17:07.452Z,3.49
2023-04-16T00:19:34.213Z,3.50
2023-04-16T00:22:00.977Z,3.53
2023-04-16T00:24:27.945Z,3.55
2023-04-16T00:26:54.688Z,3.53
2023-04-16T00:29:22.161Z,3.57
2023-04-16T00:31:48.931Z,3.58
2023-04-16T00:34:16.600Z,3.56
2023-04-16T00:36:43.449Z,3.49
2023-04-16T00:39:10.448Z,3.47
2023-04-16T00:41:38.268Z,3.48
2023-04-16T00:44:05.087Z,3.46
2023-04-16T00:46:32.119Z,3.42
2023-04-16T00:49:00.857Z,3.44
2023-04-16T00:51:27.704Z,3.47
2023-04-16T00:53:54.763Z,3.49
2023-04-16T00:56:24.324Z,3.52
2023-04-16T00:58:51.305Z,3.45
2023-04-16T01:01:18.173Z,3.50
2023-04-16T01:03:48.140Z,3.52
2023-04-16T01:06:17.567Z,3.54
2023-04-16T01:08:45.139Z,3.49
2023-04-16T01:11:12.414Z,3.54
2023-04-16T01:13:39.894Z,3.53
2023-04-16T01:16:08.586Z,3.53
2023-04-16T01:18:36.834Z,3.53
2023-04-16T01:21:04.304Z,3.51
2023-04-16T01:23:31.458Z,3.52
2023-04-16T01:25:58.282Z,3.52
2023-04-16T01:28:25.092Z,3.47
2023-04-16T01:30:51.933Z,3.50
2023-04-16T01:33:19.249Z,3.53
2023-04-16T01:35:46.254Z,3.54
2023-04-16T01:38:12.975Z,3.57
2023-04-16T01:40:39.724Z,3.70
2023-04-16T01:43:06.456Z,3.74
2023-04-16T01:45:34.599Z,3.73
2023-04-16T01:48:01.603Z,3.86
2023-04-16T01:50:29.793Z,3.94
2023-04-16T01:52:56.654Z,3.95
2023-04-16T01:55:23.567Z,4.09
2023-04-16T01:57:55.714Z,4.20
2023-04-16T02:00:26.487Z,4.24
2023-04-16T02:02:53.731Z,4.28
2023-04-16T02:05:20.601Z,4.26
2023-04-16T02:07:47.328Z,4.31
2023-04-16T02:10:14.184Z,4.22
2023-04-16T02:12:40.847Z,4.25
2023-04-16T02:15:08.115Z,4.21
2023-04-16T02:21:06.744Z,4.21
2023-04-16T02:23:33.684Z,4.31
2023-04-16T02:26:01.397Z,4.34
2023-04-16T02:28:28.268Z,4.31
2023-04-16T02:30:54.979Z,4.45
2023-04-16T02:33:21.705Z,4.56
2023-04-16T02:35:48.964Z,4.56
2023-04-16T02:38:15.667Z,4.54
2023-04-16T02:40:42.363Z,4.56
2023-04-16T02:43:09.168Z,4.46
2023-04-16T02:45:35.812Z,4.32
2023-04-16T02:48:02.784Z,4.29
2023-04-16T02:50:29.619Z,4.19
2023-04-16T02:52:56.345Z,4.22
2023-04-16T02:55:23.082Z,3.98
2023-04-16T02:57:49.990Z,4.17
2023-04-16T03:00:16.888Z,4.17
2023-04-16T03:02:43.729Z,4.14
2023-04-16T03:05:12.141Z,4.11
2023-04-16T03:07:40.833Z,4.13
2023-04-16T03:10:08.258Z,4.05
2023-04-16T03:12:35.801Z,3.83
2023-04-16T03:15:02.661Z,3.94
2023-04-16T03:17:29.589Z,4.03
2023-04-16T03:19:56.450Z,4.00
2023-04-16T03:22:23.620Z,3.92
2023-04-16T03:24:50.486Z,3.89
2023-04-16T03:27:17.349Z,3.73
2023-04-16T03:29:44.063Z,3.91
2023-04-16T03:32:12.721Z,3.99
2023-04-16T03:34:39.667Z,4.10
2023-04-16T03:37:06.450Z,4.19
2023-04-16T03:39:34.378Z,4.31
2023-04-16T03:42:02.418Z,4.25
2023-04-16T03:44:30.080Z,4.37
2023-04-16T03:46:56.939Z,4.46
2023-04-16T03:49:23.746Z,4.30
2023-04-16T03:51:50.513Z,4.12
2023-04-16T03:54:17.370Z,3.88
2023-04-16T03:56:44.295Z,3.91
2023-04-16T03:59:11.238Z,3.57
2023-04-16T04:01:38.099Z,3.76
2023-04-16T04:04:05.140Z,3.73
2023-04-16T04:06:32.714Z,3.75
2023-04-16T04:09:01.463Z,3.82
2023-04-16T04:11:28.175Z,3.90
2023-04-16T04:13:54.879Z,3.88
2023-04-16T04:16:56.824Z,3.94
2023-04-16T04:19:23.556Z,3.91
2023-04-16T04:21:50.260Z,3.99
2023-04-16T04:24:16.941Z,3.98
2023-04-16T04:26:43.638Z,3.99
2023-04-16T04:29:10.621Z,4.01
2023-04-16T04:31:37.478Z,4.06
2023-04-16T04:34:04.270Z,4.06
2023-04-16T04:36:31.352Z,4.05
2023-04-16T04:38:58.076Z,4.08
2023-04-16T04:41:24.800Z,4.14
2023-04-16T04:43:51.737Z,4.20
2023-04-16T04:46:18.530Z,4.35
2023-04-16T04:48:45.390Z,4.41
2023-04-16T04:51:12.208Z,4.49
2023-04-16T04:53:38.905Z,4.55
2023-04-16T04:56:12.248Z,4.69
2023-04-16T04:58:39.433Z,4.76
2023-04-16T05:01:06.369Z,4.80
2023-04-16T05:03:33.168Z,4.74
2023-04-16T05:06:00.094Z,4.84
2023-04-16T05:08:27.240Z,4.95
2023-04-16T05:10:54.173Z,4.90
2023-04-16T05:13:20.810Z,4.78
2023-04-16T05:15:47.445Z,4.98
2023-04-16T05:18:14.138Z,4.85
2023-04-16T05:20:40.989Z,5.10
2023-04-16T05:23:07.809Z,5.17
2023-04-16T05:25:34.635Z,5.28
2023-04-16T05:28:01.314Z,5.37
2023-04-16T05:30:27.978Z,5.37
2023-04-16T05:32:54.821Z,5.47
2023-04-16T05:35:21.634Z,5.51
2023-04-16T05:37:48.290Z,5.55
2023-04-16T05:40:15.097Z,5.63
2023-04-16T05:42:41.810Z,5.66
2023-04-16T05:45:09.110Z,5.72
2023-04-16T05:47:35.764Z,5.78
2023-04-16T05:50:02.483Z,5.96
2023-04-16T05:52:29.170Z,6.01
2023-04-16T05:54:56.086Z,6.00
2023-04-16T05:57:22.789Z,6.00
2023-04-16T05:59:49.514Z,5.97
2023-04-16T06:02:22.255Z,5.97
2023-04-16T06:04:50.140Z,6.09
2023-04-16T06:07:16.868Z,6.01
2023-04-16T06:09:45.380Z,6.18
2023-04-16T06:12:12.161Z,6.12
2023-04-16T06:14:38.890Z,6.17
2023-04-16T06:17:05.696Z,6.13
2023-04-16T06:19:32.706Z,6.07
2023-04-16T06:21:59.628Z,6.01
2023-04-16T06:24:26.320Z,6.14
2023-04-16T06:26:54.851Z,6.28
2023-04-16T06:29:27.916Z,6.31
2023-04-16T06:32:00.335Z,6.38
2023-04-16T06:34:28.896Z,6.43
2023-04-16T06:36:55.878Z,6.44
2023-04-16T06:39:22.550Z,6.48
2023-04-16T06:41:49.505Z,6.38
2023-04-16T06:44:16.468Z,6.44
2023-04-16T06:46:43.237Z,6.57
2023-04-16T06:49:11.400Z,6.60
2023-04-16T06:51:38.359Z,6.51
2023-04-16T06:54:05.050Z,6.63
2023-04-16T06:56:32.655Z,6.64
2023-04-16T06:59:01.087Z,6.83
2023-04-16T07:01:28.852Z,6.66
2023-04-16T07:03:55.815Z,7.13
2023-04-16T07:06:22.792Z,7.28
2023-04-16T07:08:49.513Z,7.24
2023-04-16T07:11:16.569Z,7.45
2023-04-16T07:13:43.383Z,7.53
2023-04-16T07:16:10.073Z,7.58
2023-04-16T07:18:36.795Z,7.56
2023-04-16T07:21:04.307Z,7.49
2023-04-16T07:23:31.617Z,7.43
2023-04-16T07:25:58.311Z,7.47
2023-04-16T07:28:26.086Z,7.59
2023-04-16T07:30:52.864Z,7.51
2023-04-16T07:33:19.655Z,7.67
2023-04-16T07:35:46.391Z,7.79
2023-04-16T07:38:14.916Z,7.77
2023-04-16T07:40:41.883Z,7.94
2023-04-16T07:43:09.018Z,8.20
2023-04-16T07:45:35.923Z,8.40
2023-04-16T07:48:02.806Z,8.48
2023-04-16T07:50:29.557Z,8.58
2023-04-16T07:52:56.307Z,8.62
2023-04-16T07:55:23.037Z,8.55
2023-04-16T07:57:49.845Z,8.62
2023-04-16T08:00:16.763Z,8.86
2023-04-16T08:02:44.598Z,9.01
2023-04-16T08:05:12.700Z,9.00
2023-04-16T08:07:39.716Z,8.91
2023-04-16T08:10:06.947Z,8.81
2023-04-16T08:12:33.829Z,8.80
2023-04-16T08:15:00.550Z,8.96
2023-04-16T08:17:28.872Z,9.06
2023-04-16T08:19:55.641Z,9.02
2023-04-16T08:22:22.810Z,9.02
2023-04-16T08:24:49.568Z,9.04
2023-04-16T08:27:19.689Z,9.06
2023-04-16T08:29:48.574Z,9.17
2023-04-16T08:32:16.357Z,9.27
2023-04-16T08:34:43.433Z,9.39
2023-04-16T08:37:14.279Z,9.40
2023-04-16T08:39:41.474Z,9.49
2023-04-16T08:42:17.463Z,9.62
2023-04-16T08:44:49.965Z,9.68
2023-04-16T08:47:23.250Z,9.86
2023-04-16T08:49:50.629Z,9.85
2023-04-16T08:52:22.615Z,10.04
2023-04-16T08:55:15.015Z,10.13
2023-04-16T08:57:53.967Z,10.26
2023-04-16T09:00:22.130Z,10.12
2023-04-16T09:02:50.576Z,10.21
2023-04-16T09:05:18.360Z,10.14
2023-04-16T09:07:48.012Z,10.10
2023-04-16T09:10:15.792Z,10.10
2023-04-16T09:12:43.253Z,10.16
2023-04-16T09:15:11.823Z,10.28
2023-04-16T09:17:39.715Z,10.38
2023-04-16T09:20:11.329Z,10.54
2023-04-16T09:22:40.548Z,10.77
2023-04-16T09:25:07.923Z,11.03
2023-04-16T09:27:34.583Z,11.08
2023-04-16T09:30:01.523Z,11.14
2023-04-16T09:32:29.296Z,11.14
2023-04-16T09:35:01.411Z,11.28
2023-04-16T09:37:32.612Z,11.35
2023-04-16T09:40:04.193Z,11.74
2023-04-16T09:42:37.468Z,11.60
2023-04-16T09:45:05.947Z,11.64
2023-04-16T09:47:43.329Z,11.84
2023-04-16T09:50:16.463Z,12.17
2023-04-16T09:52:48.230Z,12.28
2023-04-16T09:55:14.956Z,12.37
2023-04-16T09:57:41.669Z,12.53
2023-04-16T10:00:13.968Z,12.72
2023-04-16T10:02:43.183Z,12.96
2023-04-16T10:05:14.721Z,13.19
2023-04-16T10:07:42.106Z,13.36
2023-04-16T10:10:09.970Z,13.16
2023-04-16T10:12:37.417Z,13.39
2023-04-16T10:15:05.499Z,13.20
2023-04-16T10:17:33.826Z,13.43
2023-04-16T10:20:02.679Z,13.43
2023-04-16T10:22:30.296Z,13.64
2023-04-16T10:24:59.055Z,13.74
2023-04-16T10:27:28.542Z,13.93
2023-04-16T10:29:55.684Z,13.79
2023-04-16T10:32:23.549Z,13.56
2023-04-16T10:34:50.407Z,13.41
2023-04-16T10:37:18.793Z,13.38
2023-04-16T10:39:45.518Z,13.59
2023-04-16T10:42:13.204Z,13.53
2023-04-16T10:44:45.427Z,13.42
2023-04-16T10:47:14.158Z,13.56
2023-04-16T10:49:42.655Z,13.81
2023-04-16T10:52:17.469Z,14.04
2023-04-16T10:54:44.562Z,14.36
2023-04-16T10:57:19.867Z,14.60
2023-04-16T10:59:49.336Z,14.93
2023-04-16T11:02:19.854Z,14.80
2023-04-16T11:04:49.996Z,14.40
2023-04-16T11:07:21.870Z,14.02
2023-04-16T11:10:02.602Z,13.80
2023-04-16T11:12:29.416Z,13.75
2023-04-16T11:15:03.017Z,13.66
2023-04-16T11:17:36.629Z,13.64
2023-04-16T11:20:05.411Z,13.53
2023-04-16T11:22:48.324Z,13.49
2023-04-16T11:25:21.538Z,13.54
2023-04-16T11:27:48.590Z,13.47
2023-04-16T11:30:15.632Z,13.51
2023-04-16T11:32:44.575Z,13.57
2023-04-16T11:35:17.264Z,13.69
2023-04-16T11:37:47.077Z,13.64
2023-04-16T11:40:17.277Z,13.61
2023-04-16T11:42:44.688Z,13.45
2023-04-16T11:45:12.724Z,13.51
2023-04-16T11:47:55.523Z,13.71
2023-04-16T11:50:27.762Z,13.76
2023-04-16T11:53:04.818Z,13.55
2023-04-16T11:55:31.632Z,13.76
2023-04-16T11:58:11.284Z,13.74
2023-04-16T12:00:37.977Z,13.53
2023-04-16T12:03:04.923Z,13.46
2023-04-16T12:05:37.382Z,13.61
2023-04-16T12:08:09.705Z,13.80
2023-04-16T12:10:58.509Z,13.91
2023-04-16T12:13:25.311Z,13.93
2023-04-16T12:15:53.866Z,14.13
2023-04-16T12:18:26.355Z,14.29
2023-04-16T12:20:53.305Z,14.45
2023-04-16T12:23:31.495Z,14.33
2023-04-16T12:26:02.967Z,14.28
2023-04-16T12:28:35.167Z,14.23
2023-04-16T12:31:04.037Z,14.11
2023-04-16T12:33:31.455Z,14.11
2023-04-16T12:35:58.317Z,14.35
2023-04-16T12:38:26.434Z,14.52
2023-04-16T12:40:57.101Z,14.37
2023-04-16T12:43:24.379Z,14.38
2023-04-16T12:45:51.252Z,14.35
2023-04-16T12:48:18.995Z,14.19
2023-04-16T12:50:46.405Z,14.34
2023-04-16T12:53:13.205Z,14.25
2023-04-16T12:55:40.044Z,14.25
2023-04-16T12:58:06.993Z,14.42
2023-04-16T13:00:33.731Z,14.50
2023-04-16T13:03:00.633Z,14.56
2023-04-16T13:05:27.597Z,14.58
2023-04-16T13:07:54.343Z,14.47
2023-04-16T13:10:22.249Z,14.38
2023-04-16T13:12:49.260Z,14.13
2023-04-16T13:15:16.113Z,14.10
2023-04-16T13:17:42.877Z,14.00
2023-04-16T13:20:10.343Z,13.99
2023-04-16T13:22:37.210Z,13.98
2023-04-16T13:25:04.149Z,13.83
2023-04-16T13:27:32.284Z,13.81
2023-04-16T13:29:59.142Z,13.78
2023-04-16T13:32:25.910Z,13.87
2023-04-16T13:34:52.719Z,14.02
2023-04-16T13:37:19.387Z,14.15
2023-04-16T13:39:46.167Z,14.25
2023-04-16T13:42:12.874Z,14.42
2023-04-16T13:44:39.667Z,14.40
2023-04-16T13:47:06.599Z,14.35
2023-04-16T13:49:36.007Z,14.40
2023-04-16T13:52:03.338Z,14.01
2023-04-16T13:54:30.030Z,14.04
2023-04-16T13:56:57.054Z,13.99
2023-04-16T13:59:23.749Z,14.15
2023-04-16T14:01:51.253Z,14.14
2023-04-16T14:04:17.996Z,14.07
2023-04-16T14:06:45.056Z,14.02
2023-04-16T14:09:12.022Z,13.93
2023-04-16T14:11:38.958Z,13.61
2023-04-16T14:14:05.721Z,13.58
2023-04-16T14:16:32.595Z,13.45
2023-04-16T14:18:59.322Z,13.21
2023-04-16T14:21:27.301Z,13.22
2023-04-16T14:23:54.103Z,13.24
2023-04-16T14:26:20.950Z,13.27
2023-04-16T14:28:47.936Z,13.21
2023-04-16T14:31:14.727Z,13.36
2023-04-16T14:33:41.419Z,13.62
2023-04-16T14:36:08.571Z,13.72
2023-04-16T14:38:35.365Z,13.59
2023-04-16T14:41:02.098Z,13.44
2023-04-16T14:43:28.784Z,13.39
2023-04-16T14:45:57.358Z,13.38
2023-04-16T14:48:24.125Z,13.36
2023-04-16T14:50:51.117Z,13.20
2023-04-16T14:53:17.932Z,13.14
2023-04-16T14:55:44.710Z,13.11
2023-04-16T14:58:11.487Z,12.99
2023-04-16T15:00:38.311Z,12.91
2023-04-16T15:03:05.944Z,12.91
2023-04-16T15:05:33.032Z,12.88
2023-04-16T15:08:00.762Z,12.91
2023-04-16T15:10:27.727Z,12.95
2023-04-16T15:12:54.507Z,12.91
2023-04-16T15:15:21.374Z,12.70
2023-04-16T15:17:48.400Z,12.77
2023-04-16T15:20:15.478Z,12.82
2023-04-16T15:22:42.315Z,12.79
2023-04-16T15:25:11.226Z,12.74
2023-04-16T15:27:37.996Z,12.55
2023-04-16T15:30:05.329Z,12.65
2023-04-16T15:32:32.156Z,12.73
2023-04-16T15:35:00.038Z,12.73
2023-04-16T15:37:26.858Z,12.66
2023-04-16T15:39:53.646Z,12.62
2023-04-16T15:42:20.474Z,12.68
2023-04-16T15:44:48.183Z,12.59
2023-04-16T15:47:15.010Z,12.65
2023-04-16T15:49:42.574Z,12.61
2023-04-16T15:52:09.839Z,12.46
2023-04-16T15:54:39.612Z,12.48
2023-04-16T15:57:06.687Z,12.37
2023-04-16T15:59:33.462Z,12.40
2023-04-16T16:02:00.431Z,12.36
2023-04-16T16:04:28.332Z,12.27
2023-04-16T16:06:55.881Z,12.19
2023-04-16T16:09:26.485Z,12.20
2023-04-16T16:11:54.580Z,12.21
2023-04-16T16:14:22.651Z,12.13
2023-04-16T16:16:49.517Z,12.10
2023-04-16T16:19:18.741Z,12.05
2023-04-16T16:21:45.650Z,12.02
2023-04-16T16:24:12.454Z,11.90
2023-04-16T16:26:39.158Z,12.06
2023-04-16T16:29:06.039Z,11.95
2023-04-16T16:31:32.820Z,11.94
2023-04-16T16:33:59.605Z,11.94
2023-04-16T16:36:26.747Z,11.93
2023-04-16T16:38:53.589Z,11.90
2023-04-16T16:41:20.745Z,11.82
2023-04-16T16:43:47.487Z,11.79
2023-04-16T16:46:14.155Z,11.70
2023-04-16T16:48:41.098Z,11.62
2023-04-16T16:51:10.867Z,11.66
2023-04-16T16:53:37.715Z,11.54
2023-04-16T16:56:04.612Z,11.57
2023-04-16T16:58:31.744Z,11.50
2023-04-16T17:00:58.951Z,11.47
2023-04-16T17:03:25.916Z,11.43
2023-04-16T17:05:52.793Z,11.24
2023-04-16T17:08:19.536Z,11.37
2023-04-16T17:10:46.268Z,11.28
2023-04-16T17:13:17.676Z,11.25
2023-04-16T17:15:44.491Z,11.23
2023-04-16T17:18:11.208Z,11.18
2023-04-16T17:20:38.161Z,11.10
2023-04-16T17:23:04.865Z,11.07
2023-04-16T17:25:31.683Z,11.08
2023-04-16T17:27:58.455Z,11.03
2023-04-16T17:30:27.499Z,10.96
2023-04-16T17:32:54.286Z,10.92
2023-04-16T17:35:24.955Z,10.75
2023-04-16T17:37:51.927Z,10.79
2023-04-16T17:40:18.797Z,10.74
2023-04-16T17:42:45.886Z,10.68
2023-04-16T17:45:12.791Z,10.59
2023-04-16T17:47:39.622Z,10.53
2023-04-16T17:50:07.418Z,10.44
2023-04-16T17:52:34.115Z,10.39
2023-04-16T17:55:01.882Z,10.31
2023-04-16T17:57:28.782Z,10.22
2023-04-16T17:59:55.655Z,10.30
2023-04-16T18:02:22.923Z,10.32
2023-04-16T18:04:50.030Z,10.22
2023-04-16T18:07:16.956Z,10.19
2023-04-16T18:09:43.719Z,9.84
2023-04-16T18:12:10.550Z,10.07
2023-04-16T18:14:38.972Z,9.80
2023-04-16T18:17:06.788Z,9.79
2023-04-16T18:19:33.662Z,9.81
2023-04-16T18:22:00.812Z,9.63
2023-04-16T18:24:27.605Z,9.62
2023-04-16T18:26:55.301Z,9.58
2023-04-16T18:29:25.073Z,9.44
2023-04-16T18:31:52.389Z,9.52
2023-04-16T18:34:19.480Z,9.36
2023-04-16T18:36:46.366Z,9.26
2023-04-16T18:39:13.156Z,8.97
2023-04-16T18:41:40.907Z,8.91
2023-04-16T18:44:07.802Z,8.95
2023-04-16T18:46:34.525Z,8.83
2023-04-16T18:49:01.634Z,8.88
2023-04-16T18:51:28.501Z,8.63
2023-04-16T18:53:55.407Z,8.68
2023-04-16T18:56:22.086Z,8.75
2023-04-16T18:58:49.475Z,8.74
2023-04-16T19:01:16.862Z,8.49
2023-04-16T19:03:45.634Z,8.55
2023-04-16T19:06:12.467Z,8.48
2023-04-16T19:08:39.199Z,8.25
2023-04-16T19:11:06.093Z,8.33
2023-04-16T19:13:32.876Z,8.20
2023-04-16T19:16:01.239Z,8.27
2023-04-16T19:18:28.106Z,8.26
2023-04-16T19:21:01.605Z,8.27
2023-04-16T19:23:29.513Z,8.04
2023-04-16T19:25:57.200Z,8.12
2023-04-16T19:28:27.476Z,7.99
2023-04-16T19:30:54.559Z,8.06
2023-04-16T19:33:21.364Z,7.95
2023-04-16T19:35:48.211Z,7.89
2023-04-16T19:38:15.069Z,7.91
2023-04-16T19:40:46.859Z,7.83
2023-04-16T19:43:13.851Z,7.80
2023-04-16T19:45:44.910Z,7.60
2023-04-16T19:48:14.701Z,7.61
2023-04-16T19:50:43.028Z,7.54
2023-04-16T19:53:11.168Z,7.57
2023-04-16T19:55:41.859Z,7.26
2023-04-16T19:58:09.063Z,7.22
2023-04-16T20:00:41.165Z,7.06
2023-04-16T20:03:08.250Z,6.82
2023-04-16T20:05:35.762Z,6.84
2023-04-16T20:08:02.455Z,7.06
2023-04-16T20:10:31.749Z,7.02
2023-04-16T20:12:58.629Z,6.92
2023-04-16T20:15:25.701Z,6.79
2023-04-16T20:17:52.745Z,6.68
2023-04-16T20:20:19.607Z,6.62
2023-04-16T20:22:48.520Z,6.48
2023-04-16T20:25:19.249Z,6.52
2023-04-16T20:27:46.377Z,6.28
2023-04-16T20:30:14.371Z,6.52
2023-04-16T20:32:42.529Z,6.33
2023-04-16T20:35:11.644Z,6.37
2023-04-16T20:37:38.796Z,6.46
2023-04-16T20:40:08.928Z,6.47
2023-04-16T20:42:35.851Z,6.17
2023-04-16T20:45:03.726Z,6.08
2023-04-16T20:47:30.677Z,6.31
2023-04-16T20:49:58.345Z,6.39
2023-04-16T20:52:25.095Z,6.24
2023-04-16T20:54:52.493Z,6.25
2023-04-16T20:57:19.404Z,6.21
2023-04-16T20:59:46.191Z,6.18
2023-04-16T21:02:13.249Z,6.23
2023-04-16T21:04:40.278Z,6.11
2023-04-16T21:07:08.328Z,6.08
2023-04-16T21:09:35.026Z,5.89
2023-04-16T21:12:02.130Z,5.96
2023-04-16T21:14:28.837Z,5.88
2023-04-16T21:16:55.778Z,5.93
2023-04-16T21:19:22.695Z,5.89
2023-04-16T21:21:49.546Z,5.90
2023-04-16T21:24:16.351Z,5.91
2023-04-16T21:26:43.078Z,5.78
2023-04-16T21:29:09.908Z,5.68
2023-04-16T21:31:36.894Z,5.70
2023-04-16T21:34:03.645Z,5.45
2023-04-16T21:36:32.270Z,5.67
2023-04-16T21:38:59.095Z,5.56
2023-04-16T21:41:25.968Z,5.64
2023-04-16T21:43:52.660Z,5.53
2023-04-16T21:46:19.533Z,5.35
2023-04-16T21:48:48.541Z,5.39
2023-04-16T21:51:15.927Z,5.42
2023-04-16T21:53:42.853Z,5.04
2023-04-16T21:56:10.568Z,5.60
2023-04-16T21:58:37.366Z,5.59
2023-04-16T22:01:04.069Z,5.44
2023-04-16T22:03:31.247Z,5.40
2023-04-16T22:06:01.766Z,5.39
2023-04-16T22:08:29.855Z,5.35
2023-04-16T22:11:01.852Z,5.30
2023-04-16T22:13:33.227Z,5.30
2023-04-16T22:16:02.927Z,5.34
2023-04-16T22:18:33.248Z,5.15
2023-04-16T22:21:00.012Z,5.43
2023-04-16T22:23:27.944Z,5.33
2023-04-16T22:25:56.138Z,5.41
2023-04-16T22:28:23.708Z,5.03
2023-04-16T22:30:50.624Z,5.29
2023-04-16T22:33:17.589Z,5.15
2023-04-16T22:35:44.471Z,5.12
2023-04-16T22:38:11.489Z,4.94
2023-04-16T22:40:38.265Z,5.09
2023-04-16T22:43:05.477Z,5.03
2023-04-16T22:45:32.322Z,5.06
2023-04-16T22:47:59.287Z,4.99
2023-04-16T22:50:26.052Z,4.78
2023-04-16T22:52:52.793Z,4.78
2023-04-16T22:55:19.616Z,4.79
2023-04-16T22:57:47.684Z,4.68
2023-04-16T23:00:18.055Z,4.51
2023-04-16T23:02:45.569Z,4.52
2023-04-16T23:05:12.515Z,4.53
2023-04-16T23:07:39.328Z,4.56
2023-04-16T23:10:08.745Z,4.60
2023-04-16T23:12:37.625Z,4.63
2023-04-16T23:15:06.604Z,4.74
2023-04-16T23:17:34.102Z,4.93
2023-04-16T23:20:00.880Z,4.98
2023-04-16T23:22:27.744Z,5.07
2023-04-16T23:24:54.638Z,5.11
2023-04-16T23:27:21.393Z,5.16
2023-04-16T23:29:48.021Z,5.11
2023-04-16T23:32:14.720Z,4.99
2023-04-16T23:34:42.337Z,5.17
2023-04-16T23:37:09.081Z,5.05
2023-04-16T23:39:37.199Z,5.11
2023-04-16T23:42:04.188Z,5.01
2023-04-16T23:44:30.871Z,5.10
2023-04-16T23:46:57.618Z,5.09
2023-04-16T23:49:24.666Z,5.07
2023-04-16T23:51:51.502Z,5.01
2023-04-16T23:54:19.395Z,5.02
2023-04-16T23:56:46.817Z,5.03
2023-04-16T23:59:14.076Z,4.95
